sensor_id;sensor_type;location;lat;lon;timestamp;P1;durP1;ratioP1;P2;durP2;ratioP2
10637;SDS011;47007;49.252;8.904;2023-02-18T00:00:29;1.50;;;1.40;;
10637;SDS011;47007;49.252;8.904;2023-02-18T00:01:11;1.90;;;1.80;;
10637;SDS011;47007;49.252;8.904;2023-02-18T00:01:55;2.30;;;1.92;;
10637;SDS011;47007;49.252;8.904;2023-02-18T00:02:37;1.83;;;1.73;;
10637;SDS011;47007;49.252;8.904;2023-02-18T00:03:19;2.13;;;1.92;;
10637;SDS011;47007;49.252;8.904;2023-02-18T00:04:01;2.22;;;1.98;;
10637;SDS011;47007;49.252;8.904;2023-02-18T00:04:43;2.05;;;1.92;;
10637;SDS011;47007;49.252;8.904;2023-02-18T00:05:25;1.95;;;1.85;;
10637;SDS011;47007;49.252;8.904;2023-02-18T00:06:26;1.92;;;1.83;;
10637;SDS011;47007;49.252;8.904;2023-02-18T00:07:11;2.15;;;2.05;;
10637;SDS011;47007;49.252;8.904;2023-02-18T00:07:53;2.03;;;1.90;;
10637;SDS011;47007;49.252;8.904;2023-02-18T00:08:35;2.00;;;1.90;;
10637;SDS011;47007;49.252;8.904;2023-02-18T00:09:16;2.28;;;2.10;;
10637;SDS011;47007;49.252;8.904;2023-02-18T00:09:58;2.17;;;2.05;;
10637;SDS011;47007;49.252;8.904;2023-02-18T00:10:40;2.03;;;1.80;;
10637;SDS011;47007;49.252;8.904;2023-02-18T00:11:22;1.98;;;1.88;;
10637;SDS011;47007;49.252;8.904;2023-02-18T00:12:04;2.13;;;2.03;;
10637;SDS011;47007;49.252;8.904;2023-02-18T00:12:46;2.15;;;2.05;;
10637;SDS011;47007;49.252;8.904;2023-02-18T00:13:27;1.73;;;1.63;;
10637;SDS011;47007;49.252;8.904;2023-02-18T00:14:12;2.03;;;1.90;;
10637;SDS011;47007;49.252;8.904;2023-02-18T00:14:56;1.80;;;1.70;;
10637;SDS011;47007;49.252;8.904;2023-02-18T00:15:38;1.88;;;1.77;;
10637;SDS011;47007;49.252;8.904;2023-02-18T00:16:20;2.00;;;1.80;;
10637;SDS011;47007;49.252;8.904;2023-02-18T00:17:02;2.00;;;1.90;;
10637;SDS011;47007;49.252;8.904;2023-02-18T00:17:44;1.75;;;1.65;;
10637;SDS011;47007;49.252;8.904;2023-02-18T00:18:26;2.35;;;2.25;;
10637;SDS011;47007;49.252;8.904;2023-02-18T00:19:10;1.85;;;1.75;;
10637;SDS011;47007;49.252;8.904;2023-02-18T00:19:53;1.85;;;1.70;;
10637;SDS011;47007;49.252;8.904;2023-02-18T00:20:37;2.50;;;2.30;;
10637;SDS011;47007;49.252;8.904;2023-02-18T00:21:19;1.80;;;1.70;;
10637;SDS011;47007;49.252;8.904;2023-02-18T00:22:01;2.17;;;1.90;;
10637;SDS011;47007;49.252;8.904;2023-02-18T00:22:42;2.10;;;2.00;;
10637;SDS011;47007;49.252;8.904;2023-02-18T00:23:25;2.20;;;2.10;;
10637;SDS011;47007;49.252;8.904;2023-02-18T00:24:08;2.65;;;2.38;;
10637;SDS011;47007;49.252;8.904;2023-02-18T00:24:50;2.42;;;2.28;;
10637;SDS011;47007;49.252;8.904;2023-02-18T00:25:32;2.08;;;1.98;;
10637;SDS011;47007;49.252;8.904;2023-02-18T00:26:14;1.95;;;1.85;;
10637;SDS011;47007;49.252;8.904;2023-02-18T00:26:57;1.80;;;1.70;;
10637;SDS011;47007;49.252;8.904;2023-02-18T00:27:39;2.22;;;2.13;;
10637;SDS011;47007;49.252;8.904;2023-02-18T00:28:21;2.03;;;1.92;;
10637;SDS011;47007;49.252;8.904;2023-02-18T00:29:02;3.55;;;2.10;;
10637;SDS011;47007;49.252;8.904;2023-02-18T00:29:44;1.80;;;1.70;;
10637;SDS011;47007;49.252;8.904;2023-02-18T00:30:26;1.63;;;1.52;;
10637;SDS011;47007;49.252;8.904;2023-02-18T00:31:13;1.90;;;1.80;;
10637;SDS011;47007;49.252;8.904;2023-02-18T00:31:57;2.13;;;2.03;;
10637;SDS011;47007;49.252;8.904;2023-02-18T00:32:39;2.00;;;1.80;;
10637;SDS011;47007;49.252;8.904;2023-02-18T00:33:20;2.10;;;2.00;;
10637;SDS011;47007;49.252;8.904;2023-02-18T00:34:03;2.30;;;1.98;;
10637;SDS011;47007;49.252;8.904;2023-02-18T00:34:45;2.00;;;1.90;;
10637;SDS011;47007;49.252;8.904;2023-02-18T00:35:27;1.70;;;1.60;;
10637;SDS011;47007;49.252;8.904;2023-02-18T00:36:10;2.33;;;2.03;;
10637;SDS011;47007;49.252;8.904;2023-02-18T00:36:54;2.10;;;2.00;;
10637;SDS011;47007;49.252;8.904;2023-02-18T00:37:36;2.38;;;2.20;;
10637;SDS011;47007;49.252;8.904;2023-02-18T00:38:17;2.00;;;1.90;;
10637;SDS011;47007;49.252;8.904;2023-02-18T00:39:00;2.58;;;2.38;;
10637;SDS011;47007;49.252;8.904;2023-02-18T00:39:44;2.08;;;1.98;;
10637;SDS011;47007;49.252;8.904;2023-02-18T00:40:27;2.63;;;2.20;;
10637;SDS011;47007;49.252;8.904;2023-02-18T00:41:08;2.33;;;2.22;;
10637;SDS011;47007;49.252;8.904;2023-02-18T00:41:50;2.10;;;2.00;;
10637;SDS011;47007;49.252;8.904;2023-02-18T00:42:32;2.20;;;2.00;;
10637;SDS011;47007;49.252;8.904;2023-02-18T00:43:14;2.15;;;2.05;;
10637;SDS011;47007;49.252;8.904;2023-02-18T00:43:56;2.50;;;2.40;;
10637;SDS011;47007;49.252;8.904;2023-02-18T00:44:38;2.22;;;2.03;;
10637;SDS011;47007;49.252;8.904;2023-02-18T00:45:19;2.65;;;2.25;;
10637;SDS011;47007;49.252;8.904;2023-02-18T00:46:01;2.13;;;2.03;;
10637;SDS011;47007;49.252;8.904;2023-02-18T00:46:43;2.50;;;2.33;;
10637;SDS011;47007;49.252;8.904;2023-02-18T00:47:25;2.22;;;2.13;;
10637;SDS011;47007;49.252;8.904;2023-02-18T00:48:06;2.10;;;2.00;;
10637;SDS011;47007;49.252;8.904;2023-02-18T00:48:48;2.28;;;2.13;;
10637;SDS011;47007;49.252;8.904;2023-02-18T00:49:30;2.40;;;2.30;;
10637;SDS011;47007;49.252;8.904;2023-02-18T00:50:12;2.30;;;2.20;;
10637;SDS011;47007;49.252;8.904;2023-02-18T00:50:53;2.45;;;2.33;;
10637;SDS011;47007;49.252;8.904;2023-02-18T00:51:36;2.50;;;2.40;;
10637;SDS011;47007;49.252;8.904;2023-02-18T00:52:18;2.15;;;1.95;;
10637;SDS011;47007;49.252;8.904;2023-02-18T00:53:00;2.42;;;1.95;;
10637;SDS011;47007;49.252;8.904;2023-02-18T00:53:42;2.15;;;2.05;;
10637;SDS011;47007;49.252;8.904;2023-02-18T00:54:24;2.65;;;2.13;;
10637;SDS011;47007;49.252;8.904;2023-02-18T00:55:06;5.60;;;2.47;;
10637;SDS011;47007;49.252;8.904;2023-02-18T00:55:48;2.00;;;1.90;;
10637;SDS011;47007;49.252;8.904;2023-02-18T00:56:30;2.10;;;2.00;;
10637;SDS011;47007;49.252;8.904;2023-02-18T00:57:12;2.28;;;2.08;;
10637;SDS011;47007;49.252;8.904;2023-02-18T00:57:54;2.28;;;2.17;;
10637;SDS011;47007;49.252;8.904;2023-02-18T00:58:35;2.30;;;2.20;;
10637;SDS011;47007;49.252;8.904;2023-02-18T00:59:18;2.53;;;2.35;;
10637;SDS011;47007;49.252;8.904;2023-02-18T00:59:59;2.00;;;1.90;;
10637;SDS011;47007;49.252;8.904;2023-02-18T01:00:41;2.10;;;1.90;;
10637;SDS011;47007;49.252;8.904;2023-02-18T01:01:23;2.10;;;2.00;;
10637;SDS011;47007;49.252;8.904;2023-02-18T01:02:05;2.13;;;1.95;;
10637;SDS011;47007;49.252;8.904;2023-02-18T01:02:48;2.20;;;2.10;;
10637;SDS011;47007;49.252;8.904;2023-02-18T01:03:36;2.78;;;1.80;;
10637;SDS011;47007;49.252;8.904;2023-02-18T01:04:19;2.20;;;2.00;;
10637;SDS011;47007;49.252;8.904;2023-02-18T01:05:01;2.10;;;2.00;;
10637;SDS011;47007;49.252;8.904;2023-02-18T01:05:44;1.92;;;1.83;;
10637;SDS011;47007;49.252;8.904;2023-02-18T01:06:26;2.80;;;2.00;;
10637;SDS011;47007;49.252;8.904;2023-02-18T01:07:07;2.53;;;2.33;;
10637;SDS011;47007;49.252;8.904;2023-02-18T01:07:50;2.47;;;2.38;;
10637;SDS011;47007;49.252;8.904;2023-02-18T01:08:33;2.28;;;2.15;;
10637;SDS011;47007;49.252;8.904;2023-02-18T01:09:15;2.08;;;1.98;;
10637;SDS011;47007;49.252;8.904;2023-02-18T01:09:57;2.20;;;2.03;;
10637;SDS011;47007;49.252;8.904;2023-02-18T01:10:42;2.03;;;1.92;;
10637;SDS011;47007;49.252;8.904;2023-02-18T01:11:25;1.90;;;1.80;;
10637;SDS011;47007;49.252;8.904;2023-02-18T01:12:07;1.90;;;1.80;;
10637;SDS011;47007;49.252;8.904;2023-02-18T01:12:48;2.42;;;2.22;;
10637;SDS011;47007;49.252;8.904;2023-02-18T01:13:30;1.98;;;1.88;;
10637;SDS011;47007;49.252;8.904;2023-02-18T01:14:12;2.00;;;1.90;;
10637;SDS011;47007;49.252;8.904;2023-02-18T01:14:54;2.50;;;2.40;;
10637;SDS011;47007;49.252;8.904;2023-02-18T01:15:36;2.22;;;2.13;;
10637;SDS011;47007;49.252;8.904;2023-02-18T01:16:19;1.80;;;1.70;;
10637;SDS011;47007;49.252;8.904;2023-02-18T01:17:00;2.30;;;2.20;;
10637;SDS011;47007;49.252;8.904;2023-02-18T01:17:42;2.10;;;1.98;;
10637;SDS011;47007;49.252;8.904;2023-02-18T01:18:25;2.10;;;2.00;;
10637;SDS011;47007;49.252;8.904;2023-02-18T01:19:07;2.45;;;2.25;;
10637;SDS011;47007;49.252;8.904;2023-02-18T01:19:49;2.38;;;1.88;;
10637;SDS011;47007;49.252;8.904;2023-02-18T01:20:31;2.25;;;2.05;;
10637;SDS011;47007;49.252;8.904;2023-02-18T01:21:15;2.15;;;2.05;;
10637;SDS011;47007;49.252;8.904;2023-02-18T01:21:57;2.55;;;2.35;;
10637;SDS011;47007;49.252;8.904;2023-02-18T01:22:39;2.40;;;2.30;;
10637;SDS011;47007;49.252;8.904;2023-02-18T01:23:22;2.30;;;2.20;;
10637;SDS011;47007;49.252;8.904;2023-02-18T01:24:04;2.63;;;2.42;;
10637;SDS011;47007;49.252;8.904;2023-02-18T01:24:46;2.50;;;2.40;;
10637;SDS011;47007;49.252;8.904;2023-02-18T01:25:28;2.55;;;2.40;;
10637;SDS011;47007;49.252;8.904;2023-02-18T01:26:10;2.60;;;2.40;;
10637;SDS011;47007;49.252;8.904;2023-02-18T01:26:52;2.60;;;2.22;;
10637;SDS011;47007;49.252;8.904;2023-02-18T01:27:34;2.75;;;2.55;;
10637;SDS011;47007;49.252;8.904;2023-02-18T01:28:15;2.47;;;2.38;;
10637;SDS011;47007;49.252;8.904;2023-02-18T01:28:59;2.90;;;2.70;;
10637;SDS011;47007;49.252;8.904;2023-02-18T01:29:40;2.72;;;2.53;;
10637;SDS011;47007;49.252;8.904;2023-02-18T01:30:22;2.33;;;2.22;;
10637;SDS011;47007;49.252;8.904;2023-02-18T01:31:08;2.58;;;2.42;;
10637;SDS011;47007;49.252;8.904;2023-02-18T01:31:51;3.05;;;2.75;;
10637;SDS011;47007;49.252;8.904;2023-02-18T01:32:33;3.25;;;2.95;;
10637;SDS011;47007;49.252;8.904;2023-02-18T01:33:15;2.70;;;2.50;;
10637;SDS011;47007;49.252;8.904;2023-02-18T01:33:57;2.70;;;2.60;;
10637;SDS011;47007;49.252;8.904;2023-02-18T01:34:41;2.42;;;2.33;;
10637;SDS011;47007;49.252;8.904;2023-02-18T01:35:23;3.28;;;2.95;;
10637;SDS011;47007;49.252;8.904;2023-02-18T01:36:05;2.65;;;2.55;;
10637;SDS011;47007;49.252;8.904;2023-02-18T01:36:48;3.30;;;3.10;;
10637;SDS011;47007;49.252;8.904;2023-02-18T01:37:30;2.63;;;2.53;;
10637;SDS011;47007;49.252;8.904;2023-02-18T01:38:12;3.03;;;2.83;;
10637;SDS011;47007;49.252;8.904;2023-02-18T01:38:54;3.03;;;2.75;;
10637;SDS011;47007;49.252;8.904;2023-02-18T01:39:36;3.40;;;3.13;;
10637;SDS011;47007;49.252;8.904;2023-02-18T01:40:22;2.72;;;2.63;;
10637;SDS011;47007;49.252;8.904;2023-02-18T01:41:06;3.05;;;2.88;;
10637;SDS011;47007;49.252;8.904;2023-02-18T01:41:48;3.30;;;3.10;;
10637;SDS011;47007;49.252;8.904;2023-02-18T01:42:31;3.10;;;2.90;;
10637;SDS011;47007;49.252;8.904;2023-02-18T01:43:13;3.20;;;3.00;;
10637;SDS011;47007;49.252;8.904;2023-02-18T01:44:16;2.78;;;2.67;;
10637;SDS011;47007;49.252;8.904;2023-02-18T01:46:20;2.60;;;2.40;;
10637;SDS011;47007;49.252;8.904;2023-02-18T01:47:02;3.00;;;2.72;;
10637;SDS011;47007;49.252;8.904;2023-02-18T01:47:44;2.72;;;2.53;;
10637;SDS011;47007;49.252;8.904;2023-02-18T01:49:08;2.70;;;2.50;;
10637;SDS011;47007;49.252;8.904;2023-02-18T01:49:38;2.70;;;2.45;;
10637;SDS011;47007;49.252;8.904;2023-02-18T01:50:20;2.72;;;2.53;;
10637;SDS011;47007;49.252;8.904;2023-02-18T01:51:09;2.40;;;2.30;;
10637;SDS011;47007;49.252;8.904;2023-02-18T01:51:56;2.30;;;2.20;;
10637;SDS011;47007;49.252;8.904;2023-02-18T01:52:44;2.70;;;2.58;;
10637;SDS011;47007;49.252;8.904;2023-02-18T01:53:27;2.70;;;2.50;;
10637;SDS011;47007;49.252;8.904;2023-02-18T01:54:20;2.70;;;2.50;;
10637;SDS011;47007;49.252;8.904;2023-02-18T01:55:13;2.80;;;2.60;;
10637;SDS011;47007;49.252;8.904;2023-02-18T01:55:57;2.78;;;2.65;;
10637;SDS011;47007;49.252;8.904;2023-02-18T01:56:44;2.70;;;2.50;;
10637;SDS011;47007;49.252;8.904;2023-02-18T01:57:31;2.55;;;2.45;;
10637;SDS011;47007;49.252;8.904;2023-02-18T01:58:17;2.40;;;2.20;;
10637;SDS011;47007;49.252;8.904;2023-02-18T01:59:01;2.53;;;2.42;;
10637;SDS011;47007;49.252;8.904;2023-02-18T02:00:36;2.33;;;2.22;;
10637;SDS011;47007;49.252;8.904;2023-02-18T02:01:18;2.70;;;2.50;;
10637;SDS011;47007;49.252;8.904;2023-02-18T02:02:00;2.78;;;2.38;;
10637;SDS011;47007;49.252;8.904;2023-02-18T02:02:44;2.70;;;2.03;;
10637;SDS011;47007;49.252;8.904;2023-02-18T02:03:27;2.42;;;2.33;;
10637;SDS011;47007;49.252;8.904;2023-02-18T02:04:09;1.98;;;1.88;;
10637;SDS011;47007;49.252;8.904;2023-02-18T02:04:51;3.13;;;2.20;;
10637;SDS011;47007;49.252;8.904;2023-02-18T02:05:33;2.38;;;2.28;;
10637;SDS011;47007;49.252;8.904;2023-02-18T02:06:17;3.42;;;2.30;;
10637;SDS011;47007;49.252;8.904;2023-02-18T02:07:03;2.47;;;2.28;;
10637;SDS011;47007;49.252;8.904;2023-02-18T02:07:46;2.05;;;1.90;;
10637;SDS011;47007;49.252;8.904;2023-02-18T02:08:31;2.42;;;2.28;;
10637;SDS011;47007;49.252;8.904;2023-02-18T02:09:14;1.92;;;1.83;;
10637;SDS011;47007;49.252;8.904;2023-02-18T02:10:00;2.17;;;1.98;;
10637;SDS011;47007;49.252;8.904;2023-02-18T02:10:47;2.40;;;2.20;;
10637;SDS011;47007;49.252;8.904;2023-02-18T02:17:06;2.15;;;2.05;;
10637;SDS011;47007;49.252;8.904;2023-02-18T02:18:31;2.67;;;2.47;;
10637;SDS011;47007;49.252;8.904;2023-02-18T02:21:18;2.97;;;2.78;;
10637;SDS011;47007;49.252;8.904;2023-02-18T02:25:44;2.63;;;2.42;;
10637;SDS011;47007;49.252;8.904;2023-02-18T02:28:01;2.95;;;2.75;;
10637;SDS011;47007;49.252;8.904;2023-02-18T02:31:28;2.45;;;2.30;;
10637;SDS011;47007;49.252;8.904;2023-02-18T02:36:15;2.85;;;2.65;;
10637;SDS011;47007;49.252;8.904;2023-02-18T02:38:51;3.05;;;2.85;;
10637;SDS011;47007;49.252;8.904;2023-02-18T02:40:51;2.80;;;2.60;;
10637;SDS011;47007;49.252;8.904;2023-02-18T02:42:53;2.90;;;2.70;;
10637;SDS011;47007;49.252;8.904;2023-02-18T02:44:57;3.28;;;3.08;;
10637;SDS011;47007;49.252;8.904;2023-02-18T02:46:52;2.90;;;2.70;;
10637;SDS011;47007;49.252;8.904;2023-02-18T02:47:44;3.80;;;3.50;;
10637;SDS011;47007;49.252;8.904;2023-02-18T02:48:42;4.03;;;3.67;;
10637;SDS011;47007;49.252;8.904;2023-02-18T02:51:19;3.60;;;3.30;;
10637;SDS011;47007;49.252;8.904;2023-02-18T02:52:52;3.70;;;3.50;;
10637;SDS011;47007;49.252;8.904;2023-02-18T02:53:42;3.55;;;3.28;;
10637;SDS011;47007;49.252;8.904;2023-02-18T02:54:25;3.30;;;3.08;;
10637;SDS011;47007;49.252;8.904;2023-02-18T02:55:10;3.67;;;3.47;;
10637;SDS011;47007;49.252;8.904;2023-02-18T02:55:55;2.75;;;2.55;;
10637;SDS011;47007;49.252;8.904;2023-02-18T02:56:38;3.67;;;3.17;;
10637;SDS011;47007;49.252;8.904;2023-02-18T02:58:23;3.35;;;3.05;;
10637;SDS011;47007;49.252;8.904;2023-02-18T02:59:08;3.40;;;3.13;;
10637;SDS011;47007;49.252;8.904;2023-02-18T03:00:00;3.63;;;3.38;;
10637;SDS011;47007;49.252;8.904;2023-02-18T03:02:08;4.05;;;3.75;;
10637;SDS011;47007;49.252;8.904;2023-02-18T03:03:05;4.22;;;3.92;;
10637;SDS011;47007;49.252;8.904;2023-02-18T03:09:07;3.53;;;3.22;;
10637;SDS011;47007;49.252;8.904;2023-02-18T03:11:10;4.00;;;3.70;;
10637;SDS011;47007;49.252;8.904;2023-02-18T03:12:02;3.95;;;3.60;;
10637;SDS011;47007;49.252;8.904;2023-02-18T03:14:21;4.60;;;4.05;;
10637;SDS011;47007;49.252;8.904;2023-02-18T03:16:20;4.78;;;4.40;;
10637;SDS011;47007;49.252;8.904;2023-02-18T03:17:08;5.30;;;4.90;;
10637;SDS011;47007;49.252;8.904;2023-02-18T03:18:02;4.95;;;4.45;;
10637;SDS011;47007;49.252;8.904;2023-02-18T03:19:48;5.10;;;4.80;;
10637;SDS011;47007;49.252;8.904;2023-02-18T03:20:42;5.20;;;4.82;;
10637;SDS011;47007;49.252;8.904;2023-02-18T03:21:39;5.00;;;4.60;;
10637;SDS011;47007;49.252;8.904;2023-02-18T03:22:36;4.85;;;4.45;;
10637;SDS011;47007;49.252;8.904;2023-02-18T03:23:24;5.15;;;4.75;;
10637;SDS011;47007;49.252;8.904;2023-02-18T03:24:19;5.35;;;4.93;;
10637;SDS011;47007;49.252;8.904;2023-02-18T03:25:28;5.10;;;4.70;;
10637;SDS011;47007;49.252;8.904;2023-02-18T03:26:12;4.85;;;4.47;;
10637;SDS011;47007;49.252;8.904;2023-02-18T03:27:01;5.07;;;4.78;;
10637;SDS011;47007;49.252;8.904;2023-02-18T03:28:10;4.82;;;4.53;;
10637;SDS011;47007;49.252;8.904;2023-02-18T03:28:55;4.75;;;4.45;;
10637;SDS011;47007;49.252;8.904;2023-02-18T03:29:43;5.07;;;4.68;;
10637;SDS011;47007;49.252;8.904;2023-02-18T03:30:28;4.63;;;4.30;;
10637;SDS011;47007;49.252;8.904;2023-02-18T03:31:15;4.53;;;4.22;;
10637;SDS011;47007;49.252;8.904;2023-02-18T03:32:02;5.03;;;4.65;;
10637;SDS011;47007;49.252;8.904;2023-02-18T03:32:48;4.63;;;4.22;;
10637;SDS011;47007;49.252;8.904;2023-02-18T03:33:38;4.75;;;4.45;;
10637;SDS011;47007;49.252;8.904;2023-02-18T03:34:27;4.65;;;4.35;;
10637;SDS011;47007;49.252;8.904;2023-02-18T03:35:13;4.63;;;4.32;;
10637;SDS011;47007;49.252;8.904;2023-02-18T03:35:57;4.38;;;3.97;;
10637;SDS011;47007;49.252;8.904;2023-02-18T03:36:39;4.65;;;4.25;;
10637;SDS011;47007;49.252;8.904;2023-02-18T03:37:22;4.90;;;4.50;;
10637;SDS011;47007;49.252;8.904;2023-02-18T03:39:03;4.40;;;4.10;;
10637;SDS011;47007;49.252;8.904;2023-02-18T03:39:51;4.47;;;3.80;;
10637;SDS011;47007;49.252;8.904;2023-02-18T03:40:37;4.28;;;3.97;;
10637;SDS011;47007;49.252;8.904;2023-02-18T03:41:19;3.92;;;3.72;;
10637;SDS011;47007;49.252;8.904;2023-02-18T03:42:01;4.28;;;3.97;;
10637;SDS011;47007;49.252;8.904;2023-02-18T03:42:43;4.63;;;4.32;;
10637;SDS011;47007;49.252;8.904;2023-02-18T03:43:25;4.05;;;3.78;;
10637;SDS011;47007;49.252;8.904;2023-02-18T03:44:07;4.43;;;4.13;;
10637;SDS011;47007;49.252;8.904;2023-02-18T03:44:50;4.18;;;3.67;;
10637;SDS011;47007;49.252;8.904;2023-02-18T03:45:31;4.05;;;3.75;;
10637;SDS011;47007;49.252;8.904;2023-02-18T03:46:13;4.40;;;4.00;;
10637;SDS011;47007;49.252;8.904;2023-02-18T03:46:57;4.65;;;4.25;;
10637;SDS011;47007;49.252;8.904;2023-02-18T03:47:38;4.70;;;4.05;;
10637;SDS011;47007;49.252;8.904;2023-02-18T03:48:21;4.63;;;4.22;;
10637;SDS011;47007;49.252;8.904;2023-02-18T03:49:05;4.88;;;4.47;;
10637;SDS011;47007;49.252;8.904;2023-02-18T03:49:47;4.45;;;4.15;;
10637;SDS011;47007;49.252;8.904;2023-02-18T03:50:29;4.70;;;4.30;;
10637;SDS011;47007;49.252;8.904;2023-02-18T03:51:11;4.65;;;4.35;;
10637;SDS011;47007;49.252;8.904;2023-02-18T03:51:53;4.68;;;4.38;;
10637;SDS011;47007;49.252;8.904;2023-02-18T03:52:35;4.70;;;4.40;;
10637;SDS011;47007;49.252;8.904;2023-02-18T03:53:17;4.70;;;4.32;;
10637;SDS011;47007;49.252;8.904;2023-02-18T03:54:01;4.60;;;4.20;;
10637;SDS011;47007;49.252;8.904;2023-02-18T03:54:43;4.80;;;4.40;;
10637;SDS011;47007;49.252;8.904;2023-02-18T03:55:24;4.43;;;4.13;;
10637;SDS011;47007;49.252;8.904;2023-02-18T03:56:06;4.32;;;4.03;;
10637;SDS011;47007;49.252;8.904;2023-02-18T03:56:48;4.35;;;4.05;;
10637;SDS011;47007;49.252;8.904;2023-02-18T03:57:30;4.32;;;3.92;;
10637;SDS011;47007;49.252;8.904;2023-02-18T03:58:12;4.30;;;4.00;;
10637;SDS011;47007;49.252;8.904;2023-02-18T03:58:54;4.82;;;4.43;;
10637;SDS011;47007;49.252;8.904;2023-02-18T03:59:35;4.32;;;4.03;;
10637;SDS011;47007;49.252;8.904;2023-02-18T04:00:17;5.05;;;4.65;;
10637;SDS011;47007;49.252;8.904;2023-02-18T04:00:59;4.60;;;4.28;;
10637;SDS011;47007;49.252;8.904;2023-02-18T04:01:41;4.53;;;4.22;;
10637;SDS011;47007;49.252;8.904;2023-02-18T04:02:23;4.28;;;3.97;;
10637;SDS011;47007;49.252;8.904;2023-02-18T04:03:04;4.30;;;4.00;;
10637;SDS011;47007;49.252;8.904;2023-02-18T04:03:46;5.43;;;4.28;;
10637;SDS011;47007;49.252;8.904;2023-02-18T04:04:29;4.45;;;4.10;;
10637;SDS011;47007;49.252;8.904;2023-02-18T04:05:11;4.80;;;4.40;;
10637;SDS011;47007;49.252;8.904;2023-02-18T04:05:53;5.00;;;4.70;;
10637;SDS011;47007;49.252;8.904;2023-02-18T04:06:34;4.43;;;4.13;;
10637;SDS011;47007;49.252;8.904;2023-02-18T04:07:16;5.05;;;4.65;;
10637;SDS011;47007;49.252;8.904;2023-02-18T04:07:58;4.93;;;4.53;;
10637;SDS011;47007;49.252;8.904;2023-02-18T04:08:40;4.65;;;4.25;;
10637;SDS011;47007;49.252;8.904;2023-02-18T04:09:21;4.40;;;4.10;;
10637;SDS011;47007;49.252;8.904;2023-02-18T04:10:03;4.68;;;4.38;;
10637;SDS011;47007;49.252;8.904;2023-02-18T04:10:46;5.20;;;4.80;;
10637;SDS011;47007;49.252;8.904;2023-02-18T04:11:28;5.28;;;4.93;;
10637;SDS011;47007;49.252;8.904;2023-02-18T04:12:10;5.68;;;5.22;;
10637;SDS011;47007;49.252;8.904;2023-02-18T04:12:52;4.88;;;4.47;;
10637;SDS011;47007;49.252;8.904;2023-02-18T04:13:33;4.47;;;4.18;;
10637;SDS011;47007;49.252;8.904;2023-02-18T04:14:15;4.90;;;4.60;;
10637;SDS011;47007;49.252;8.904;2023-02-18T04:14:57;5.43;;;5.03;;
10637;SDS011;47007;49.252;8.904;2023-02-18T04:15:38;5.05;;;4.75;;
10637;SDS011;47007;49.252;8.904;2023-02-18T04:16:20;5.22;;;4.90;;
10637;SDS011;47007;49.252;8.904;2023-02-18T04:17:02;5.50;;;5.10;;
10637;SDS011;47007;49.252;8.904;2023-02-18T04:17:43;5.78;;;5.22;;
10637;SDS011;47007;49.252;8.904;2023-02-18T04:18:25;5.28;;;4.88;;
10637;SDS011;47007;49.252;8.904;2023-02-18T04:19:07;4.57;;;4.28;;
10637;SDS011;47007;49.252;8.904;2023-02-18T04:19:48;5.22;;;4.82;;
10637;SDS011;47007;49.252;8.904;2023-02-18T04:20:30;4.90;;;4.60;;
10637;SDS011;47007;49.252;8.904;2023-02-18T04:21:12;5.03;;;4.72;;
10637;SDS011;47007;49.252;8.904;2023-02-18T04:21:54;5.72;;;5.22;;
10637;SDS011;47007;49.252;8.904;2023-02-18T04:22:35;5.43;;;5.03;;
10637;SDS011;47007;49.252;8.904;2023-02-18T04:23:17;5.30;;;4.95;;
10637;SDS011;47007;49.252;8.904;2023-02-18T04:23:59;5.45;;;5.05;;
10637;SDS011;47007;49.252;8.904;2023-02-18T04:24:41;5.28;;;4.88;;
10637;SDS011;47007;49.252;8.904;2023-02-18T04:25:23;5.22;;;4.82;;
10637;SDS011;47007;49.252;8.904;2023-02-18T04:26:04;4.85;;;4.53;;
10637;SDS011;47007;49.252;8.904;2023-02-18T04:26:47;4.80;;;4.50;;
10637;SDS011;47007;49.252;8.904;2023-02-18T04:27:29;5.60;;;4.80;;
10637;SDS011;47007;49.252;8.904;2023-02-18T04:28:12;4.68;;;4.38;;
10637;SDS011;47007;49.252;8.904;2023-02-18T04:28:55;5.38;;;5.00;;
10637;SDS011;47007;49.252;8.904;2023-02-18T04:29:37;5.10;;;4.70;;
10637;SDS011;47007;49.252;8.904;2023-02-18T04:30:19;5.70;;;5.30;;
10637;SDS011;47007;49.252;8.904;2023-02-18T04:31:01;5.13;;;4.72;;
10637;SDS011;47007;49.252;8.904;2023-02-18T04:31:43;5.40;;;4.90;;
10637;SDS011;47007;49.252;8.904;2023-02-18T04:32:24;5.15;;;4.85;;
10637;SDS011;47007;49.252;8.904;2023-02-18T04:33:06;5.40;;;5.00;;
10637;SDS011;47007;49.252;8.904;2023-02-18T04:33:48;5.25;;;4.85;;
10637;SDS011;47007;49.252;8.904;2023-02-18T04:34:29;4.78;;;4.47;;
10637;SDS011;47007;49.252;8.904;2023-02-18T04:35:11;5.85;;;5.45;;
10637;SDS011;47007;49.252;8.904;2023-02-18T04:35:53;5.88;;;5.43;;
10637;SDS011;47007;49.252;8.904;2023-02-18T04:36:34;5.60;;;5.20;;
10637;SDS011;47007;49.252;8.904;2023-02-18T04:37:16;6.05;;;5.47;;
10637;SDS011;47007;49.252;8.904;2023-02-18T04:37:58;5.70;;;5.30;;
10637;SDS011;47007;49.252;8.904;2023-02-18T04:38:39;5.65;;;5.18;;
10637;SDS011;47007;49.252;8.904;2023-02-18T04:39:23;5.07;;;4.78;;
10637;SDS011;47007;49.252;8.904;2023-02-18T04:40:05;5.68;;;5.28;;
10637;SDS011;47007;49.252;8.904;2023-02-18T04:40:47;5.53;;;5.13;;
10637;SDS011;47007;49.252;8.904;2023-02-18T04:41:29;5.82;;;5.43;;
10637;SDS011;47007;49.252;8.904;2023-02-18T04:42:11;5.15;;;4.85;;
10637;SDS011;47007;49.252;8.904;2023-02-18T04:42:53;5.40;;;5.10;;
10637;SDS011;47007;49.252;8.904;2023-02-18T04:43:34;5.50;;;5.10;;
10637;SDS011;47007;49.252;8.904;2023-02-18T04:44:16;5.55;;;5.15;;
10637;SDS011;47007;49.252;8.904;2023-02-18T04:44:58;5.90;;;5.47;;
10637;SDS011;47007;49.252;8.904;2023-02-18T04:45:39;6.07;;;5.68;;
10637;SDS011;47007;49.252;8.904;2023-02-18T04:46:21;7.03;;;6.53;;
10637;SDS011;47007;49.252;8.904;2023-02-18T04:47:04;5.82;;;5.43;;
10637;SDS011;47007;49.252;8.904;2023-02-18T04:47:46;6.57;;;6.07;;
10637;SDS011;47007;49.252;8.904;2023-02-18T04:48:28;6.72;;;6.22;;
10637;SDS011;47007;49.252;8.904;2023-02-18T04:49:10;6.82;;;6.32;;
10637;SDS011;47007;49.252;8.904;2023-02-18T04:49:51;6.65;;;6.15;;
10637;SDS011;47007;49.252;8.904;2023-02-18T04:50:33;7.18;;;6.68;;
10637;SDS011;47007;49.252;8.904;2023-02-18T04:51:15;7.30;;;6.80;;
10637;SDS011;47007;49.252;8.904;2023-02-18T04:51:57;7.50;;;6.90;;
10637;SDS011;47007;49.252;8.904;2023-02-18T04:52:38;7.35;;;6.85;;
10637;SDS011;47007;49.252;8.904;2023-02-18T04:53:20;7.22;;;6.57;;
10637;SDS011;47007;49.252;8.904;2023-02-18T04:54:02;7.70;;;7.20;;
10637;SDS011;47007;49.252;8.904;2023-02-18T04:54:44;7.22;;;6.68;;
10637;SDS011;47007;49.252;8.904;2023-02-18T04:55:26;6.80;;;6.30;;
10637;SDS011;47007;49.252;8.904;2023-02-18T04:56:08;7.10;;;6.60;;
10637;SDS011;47007;49.252;8.904;2023-02-18T04:56:50;7.55;;;6.88;;
10637;SDS011;47007;49.252;8.904;2023-02-18T04:57:32;7.00;;;6.45;;
10637;SDS011;47007;49.252;8.904;2023-02-18T04:58:13;6.80;;;6.30;;
10637;SDS011;47007;49.252;8.904;2023-02-18T04:58:55;6.68;;;6.18;;
10637;SDS011;47007;49.252;8.904;2023-02-18T04:59:37;6.85;;;6.35;;
10637;SDS011;47007;49.252;8.904;2023-02-18T05:00:19;6.90;;;6.40;;
10637;SDS011;47007;49.252;8.904;2023-02-18T05:01:01;6.68;;;6.18;;
10637;SDS011;47007;49.252;8.904;2023-02-18T05:01:44;6.45;;;6.03;;
10637;SDS011;47007;49.252;8.904;2023-02-18T05:02:26;7.03;;;6.45;;
10637;SDS011;47007;49.252;8.904;2023-02-18T05:03:07;6.78;;;6.30;;
10637;SDS011;47007;49.252;8.904;2023-02-18T05:03:49;6.60;;;6.10;;
10637;SDS011;47007;49.252;8.904;2023-02-18T05:04:31;6.57;;;5.97;;
10637;SDS011;47007;49.252;8.904;2023-02-18T05:05:13;6.13;;;5.72;;
10637;SDS011;47007;49.252;8.904;2023-02-18T05:05:55;6.22;;;5.80;;
10637;SDS011;47007;49.252;8.904;2023-02-18T05:06:37;5.88;;;5.47;;
10637;SDS011;47007;49.252;8.904;2023-02-18T05:07:23;6.18;;;5.68;;
10637;SDS011;47007;49.252;8.904;2023-02-18T05:08:05;5.90;;;5.43;;